РУС

ENG

 
  Pireps - S7
 

Рейс SBI5309

  • Выполнял: Anton Molchanov
  • Аэропорт отправления: Minsk (UMMS)
  • Аэропорт назначения: Domodedovo Airport (UUDD)
  • Тип ВС: A320-214 (VP-BDT)
  • Время полёта: 01.12
  • Дата полёта: 20.02.2021
  • Маршрут: DCT
  • Статус: Одобрен

Детали полёта
Gross Revenue:
(128 load / $ 100.00 per unit
$ 12, 800.00
Fuel Cost:
(3381 fuel used @ 5.1 / unit)
$ 17, 243.10


Дополнительная информация о полёте:

Лог

Aircraft Used in flight is Airbus A320 Airbus Industries F-WWBA
14:58Flaps 3 Selected at 680ft and 3kts
14:58 Boarding
14:58 Engine 1 Started
14:58 Engine 2 Started
14:58 Navigation Lights ON at 680 AGL
14:58 Taxi Lights ON at 680 AGL
14:58 Beacon Lights ON at 680 AGL
14:58 Brakes are On
14:59 Brakes are Released
15:00 Landing Lights ON at 680 AGL
15:00 Strobe Lights ON at 680 AGL
15:02 You Took off @ 156 Knots and Flaps at Position 3
Departure Weather
UMMS 200730Z 18003MPS 9999 BKN012 M10/M13 Q1022 R13L/CLRD// R13R/////// NOSIG
15:02 TOC Reached
15:02 Landing Gear Up @ 164 Knots and 750 Feet
15:02 Taxi Lights OFF at 780 AGL
15:02Flaps 2 Selected at 2260ft and 174kts
15:03Flaps Retracted at 3540ft and 205kts
15:04 Below 10000 feet you are not allowed to go over 250 knots
15:04 You exceeded maximum bank angle
15:07 Landing Lights OFF at 9940 AGL
15:56Flaps 1 Selected at 11120ft and 216kts
15:57 Landing Lights ON at 9830 AGL
16:04Flaps 2 Selected at 2840ft and 197kts
16:04Flaps 3 Selected at 2840ft and 198kts
16:06 Spoilers Armed
16:06 Landing Gear Down @ 153 Knots and 2800 Feet
16:07Flaps 4 Selected at 2750ft and 156kts
16:07 Taxi Lights ON at 2670 AGL
16:07Flaps 5 Selected at 2650ft and 153kts
16:09 You Landed @ 139 Knots and with -200 Vertical Speed
Arrival Weather
UUDD 200730Z 19002MPS CAVOK M14/M16 Q1024 R32L/420242 R32R/450242 NOSIG
16:10 Landing Lights OFF at 600 AGL
16:10 Strobe Lights OFF at 600 AGL
16:10Flaps Retracted at 600ft and 23kts
16:10 Taxiing to gate
16:11 Brakes are On
Pirep logged with S7 Tracking 1.0.0.14



Общая оценка полета : 100%




Route Map



 
 
   
 
Новости

03.09.2020 - Полеты в MFS 2020

Спешим сообщить вам, что теперь наш S7 Pad поддерживается для полетов в новом симуляторе MFS 2020. В разделе Загрузки вы найдете FSUIPC7.rar
Инструкция для запуска прилагается!

   
 
Авторизация






Регистрация

Восстановить пароль?

Мы в соц. сетях

      



   
 





   
 


   
 


Яндекс.Метрика

www.va-s7.ru 2011-2021
Все права защищены.



Минуточку внимания!
Сайт va-s7.ru не является коммерческим проектом. Мы не имеем отношения к торговым маркам "S7" и "Globus" и их представителям.
Эмблемы на сайте являются собственностью соответствующих компаний.

аэронавигационная метеорологическая и любая другая информация с данного ресурса ни в коем случае не должна использоваться для реальных полетов